createdAt,value
2019-04-04T00:00:50.282Z,6.61
2019-04-04T00:03:23.762Z,6.52
2019-04-04T00:05:56.616Z,6.59
2019-04-04T00:08:31.749Z,6.66
2019-04-04T00:11:06.073Z,6.59
2019-04-04T00:13:42.086Z,6.58
2019-04-04T00:16:16.672Z,6.48
2019-04-04T00:18:52.866Z,6.58
2019-04-04T00:21:27.630Z,6.50
2019-04-04T00:24:01.030Z,6.46
2019-04-04T00:26:35.347Z,6.54
2019-04-04T00:29:08.363Z,6.53
2019-04-04T00:31:42.382Z,6.35
2019-04-04T00:34:17.518Z,6.36
2019-04-04T00:36:51.577Z,6.45
2019-04-04T00:39:24.654Z,6.68
2019-04-04T00:41:57.825Z,6.60
2019-04-04T00:44:31.471Z,6.62
2019-04-04T00:47:06.112Z,6.52
2019-04-04T00:49:39.129Z,6.55
2019-04-04T00:52:11.887Z,6.53
2019-04-04T00:54:45.541Z,6.59
2019-04-04T00:57:20.127Z,6.54
2019-04-04T00:59:55.104Z,6.51
2019-04-04T01:02:30.618Z,6.52
2019-04-04T01:07:46.076Z,6.58
2019-04-04T01:10:19.645Z,6.53
2019-04-04T01:12:54.946Z,6.52
2019-04-04T01:15:31.789Z,6.46
2019-04-04T01:18:06.151Z,6.46
2019-04-04T01:20:41.341Z,6.60
2019-04-04T01:23:14.522Z,6.52
2019-04-04T01:25:48.832Z,6.42
2019-04-04T01:28:24.731Z,6.46
2019-04-04T01:30:58.656Z,6.50
2019-04-04T01:33:32.434Z,6.42
2019-04-04T01:36:06.850Z,6.29
2019-04-04T01:38:40.539Z,6.34
2019-04-04T01:41:13.275Z,6.46
2019-04-04T01:43:46.750Z,6.48
2019-04-04T01:46:21.488Z,6.48
2019-04-04T01:48:56.736Z,6.38
2019-04-04T01:51:30.589Z,6.46
2019-04-04T01:54:04.092Z,6.46
2019-04-04T01:56:37.039Z,6.45
2019-04-04T01:59:12.274Z,6.37
2019-04-04T02:01:47.428Z,6.43
2019-04-04T02:04:24.555Z,6.46
2019-04-04T02:06:59.000Z,6.40
2019-04-04T02:09:34.589Z,6.41
2019-04-04T02:12:09.635Z,6.41
2019-04-04T02:14:43.577Z,6.34
2019-04-04T02:17:20.136Z,6.33
2019-04-04T02:19:56.340Z,6.40
2019-04-04T02:22:31.106Z,6.33
2019-04-04T02:25:07.943Z,6.32
2019-04-04T02:27:40.679Z,6.32
2019-04-04T02:30:16.743Z,6.34
2019-04-04T02:32:49.765Z,6.32
2019-04-04T02:35:25.815Z,6.36
2019-04-04T02:38:02.176Z,6.40
2019-04-04T02:40:35.416Z,6.35
2019-04-04T02:43:09.112Z,6.28
2019-04-04T02:45:43.939Z,6.33
2019-04-04T02:48:17.907Z,6.34
2019-04-04T02:50:51.235Z,6.32
2019-04-04T02:53:25.318Z,6.42
2019-04-04T02:56:03.243Z,6.39
2019-04-04T02:58:35.321Z,6.42
2019-04-04T03:01:07.698Z,6.40
2019-04-04T03:03:42.391Z,6.43
2019-04-04T03:06:15.215Z,6.39
2019-04-04T03:08:48.281Z,6.44
2019-04-04T03:11:22.119Z,6.46
2019-04-04T03:13:56.445Z,6.42
2019-04-04T03:16:29.933Z,6.38
2019-04-04T03:19:02.003Z,6.39
2019-04-04T03:21:35.008Z,6.43
2019-04-04T03:24:09.019Z,6.37
2019-04-04T03:26:44.723Z,6.38
2019-04-04T03:29:18.195Z,6.37
2019-04-04T03:31:51.984Z,6.45
2019-04-04T03:34:26.622Z,6.41
2019-04-04T03:37:06.595Z,6.40
2019-04-04T03:39:40.000Z,6.39
2019-04-04T03:42:13.638Z,6.43
2019-04-04T03:44:46.323Z,6.46
2019-04-04T03:47:19.697Z,6.49
2019-04-04T03:49:57.630Z,6.46
2019-04-04T03:52:29.347Z,6.45
2019-04-04T03:55:02.576Z,6.48
2019-04-04T03:57:34.694Z,6.47
2019-04-04T04:00:09.610Z,6.42
2019-04-04T04:02:49.713Z,6.46
2019-04-04T04:05:27.662Z,6.44
2019-04-04T04:08:00.775Z,6.53
2019-04-04T04:10:34.082Z,6.50
2019-04-04T04:13:07.102Z,6.56
2019-04-04T04:15:40.541Z,6.54
2019-04-04T04:18:11.868Z,6.53
2019-04-04T04:20:45.039Z,6.51
2019-04-04T04:23:23.799Z,6.51
2019-04-04T04:25:57.939Z,6.46
2019-04-04T04:28:36.106Z,6.53
2019-04-04T04:31:14.295Z,6.49
2019-04-04T04:33:44.846Z,6.53
2019-04-04T04:36:16.471Z,6.50
2019-04-04T04:38:58.975Z,6.42
2019-04-04T04:41:30.358Z,6.40
2019-04-04T04:44:05.604Z,6.44
2019-04-04T04:46:40.696Z,6.44
2019-04-04T04:49:14.790Z,6.44
2019-04-04T04:51:48.835Z,6.46
2019-04-04T04:54:24.484Z,6.49
2019-04-04T04:57:03.389Z,6.50
2019-04-04T04:59:36.053Z,6.53
2019-04-04T05:02:10.793Z,6.46
2019-04-04T05:04:48.160Z,6.56
2019-04-04T05:07:21.962Z,6.55
2019-04-04T05:09:55.942Z,6.54
2019-04-04T05:12:29.355Z,6.53
2019-04-04T05:15:02.018Z,6.52
2019-04-04T05:17:34.808Z,6.63
2019-04-04T05:20:14.340Z,6.60
2019-04-04T05:22:49.773Z,6.70
2019-04-04T05:25:24.744Z,6.70
2019-04-04T05:27:58.030Z,6.77
2019-04-04T05:30:34.256Z,6.70
2019-04-04T05:33:08.521Z,6.68
2019-04-04T05:35:41.334Z,6.83
2019-04-04T05:38:14.441Z,6.90
2019-04-04T05:40:47.845Z,6.91
2019-04-04T05:43:23.946Z,6.87
2019-04-04T05:46:00.582Z,6.85
2019-04-04T05:48:36.415Z,6.86
2019-04-04T05:51:11.031Z,6.93
2019-04-04T05:53:44.679Z,7.01
2019-04-04T05:56:18.415Z,7.06
2019-04-04T05:58:53.113Z,7.08
2019-04-04T06:01:27.032Z,7.15
2019-04-04T06:03:59.385Z,7.07
2019-04-04T06:06:33.394Z,7.25
2019-04-04T06:09:13.958Z,7.34
2019-04-04T06:11:48.518Z,7.39
2019-04-04T06:14:20.775Z,7.43
2019-04-04T06:16:54.265Z,7.41
2019-04-04T06:19:27.541Z,7.44
2019-04-04T06:22:00.754Z,7.65
2019-04-04T06:24:32.310Z,7.71
2019-04-04T06:27:10.654Z,7.74
2019-04-04T06:29:47.662Z,7.76
2019-04-04T06:32:21.655Z,7.86
2019-04-04T06:34:56.724Z,7.85
2019-04-04T06:37:30.819Z,7.82
2019-04-04T06:40:04.574Z,7.90
2019-04-04T06:42:40.555Z,8.16
2019-04-04T06:45:16.161Z,8.15
2019-04-04T06:47:50.272Z,8.21
2019-04-04T06:50:23.416Z,8.29
2019-04-04T06:52:56.954Z,8.53
2019-04-04T06:55:30.348Z,8.74
2019-04-04T06:58:03.947Z,8.42
2019-04-04T07:00:42.029Z,9.09
2019-04-04T07:03:15.330Z,9.29
2019-04-04T07:05:50.230Z,9.16
2019-04-04T07:08:24.533Z,8.95
2019-04-04T07:11:02.761Z,9.43
2019-04-04T07:13:42.142Z,9.73
2019-04-04T07:16:11.899Z,9.32
2019-04-04T07:18:47.615Z,9.14
2019-04-04T07:21:21.518Z,9.38
2019-04-04T07:23:54.916Z,9.41
2019-04-04T07:26:27.582Z,9.38
2019-04-04T07:28:59.974Z,9.51
2019-04-04T07:31:35.077Z,9.75
2019-04-04T07:34:08.356Z,9.50
2019-04-04T07:36:41.534Z,9.68
2019-04-04T07:39:15.316Z,9.78
2019-04-04T07:41:49.008Z,9.88
2019-04-04T07:44:23.287Z,9.51
2019-04-04T07:46:57.551Z,9.78
2019-04-04T07:49:31.647Z,9.44
2019-04-04T07:52:03.387Z,9.92
2019-04-04T07:54:38.514Z,10.21
2019-04-04T07:57:12.789Z,10.34
2019-04-04T07:59:46.124Z,10.23
2019-04-04T08:02:20.931Z,10.02
2019-04-04T08:04:54.354Z,10.21
2019-04-04T08:07:26.029Z,10.44
2019-04-04T08:10:01.251Z,10.52
2019-04-04T08:12:36.514Z,10.73
2019-04-04T08:15:10.284Z,11.11
2019-04-04T08:17:44.127Z,11.38
2019-04-04T08:20:19.072Z,11.14
2019-04-04T08:22:52.980Z,11.34
2019-04-04T08:25:25.645Z,11.67
2019-04-04T08:27:58.935Z,11.73
2019-04-04T08:30:32.861Z,11.91
2019-04-04T08:33:08.174Z,11.81
2019-04-04T08:35:42.789Z,11.92
2019-04-04T08:38:16.326Z,12.15
2019-04-04T08:40:52.004Z,12.39
2019-04-04T08:43:26.555Z,12.34
2019-04-04T08:45:59.624Z,12.72
2019-04-04T08:48:33.035Z,12.88
2019-04-04T08:51:06.879Z,12.38
2019-04-04T08:53:40.681Z,13.00
2019-04-04T08:56:15.733Z,12.89
2019-04-04T08:58:51.559Z,14.03
2019-04-04T09:01:24.299Z,14.26
2019-04-04T09:04:00.164Z,14.55
2019-04-04T09:06:33.507Z,14.76
2019-04-04T09:09:07.235Z,15.11
2019-04-04T09:11:39.760Z,15.27
2019-04-04T09:14:12.763Z,15.61
2019-04-04T09:16:45.666Z,15.18
2019-04-04T09:19:19.118Z,15.77
2019-04-04T09:21:54.364Z,15.99
2019-04-04T09:24:28.162Z,15.58
2019-04-04T09:27:01.489Z,16.26
2019-04-04T09:29:33.527Z,16.49
2019-04-04T09:32:06.430Z,16.65
2019-04-04T09:34:40.168Z,16.47
2019-04-04T09:37:14.341Z,15.97
2019-04-04T09:39:48.368Z,16.34
2019-04-04T09:42:21.300Z,17.04
2019-04-04T09:44:54.799Z,16.56
2019-04-04T09:47:29.650Z,17.11
2019-04-04T09:50:02.414Z,16.98
2019-04-04T09:52:36.067Z,17.22
2019-04-04T09:55:08.476Z,16.91
2019-04-04T09:57:42.889Z,16.37
2019-04-04T10:00:19.946Z,17.32
2019-04-04T10:02:55.323Z,16.33
2019-04-04T10:05:28.581Z,16.98
2019-04-04T10:08:01.698Z,16.95
2019-04-04T10:10:35.407Z,16.49
2019-04-04T10:13:09.434Z,16.13
2019-04-04T10:15:42.243Z,15.93
2019-04-04T10:18:15.105Z,15.48
2019-04-04T10:20:48.935Z,16.05
2019-04-04T10:23:22.182Z,15.94
2019-04-04T10:25:55.008Z,15.96
2019-04-04T10:28:26.411Z,16.07
2019-04-04T10:30:58.798Z,16.25
2019-04-04T10:33:35.832Z,15.41
2019-04-04T10:36:08.548Z,15.58
2019-04-04T10:38:42.663Z,15.05
2019-04-04T10:41:15.568Z,14.93
2019-04-04T10:43:48.531Z,15.09
2019-04-04T10:46:23.655Z,15.27
2019-04-04T10:48:56.418Z,15.34
2019-04-04T10:51:29.467Z,15.11
2019-04-04T10:54:02.928Z,14.95
2019-04-04T10:56:38.034Z,15.12
2019-04-04T10:59:11.214Z,15.12
2019-04-04T11:01:44.008Z,14.79
2019-04-04T11:04:16.526Z,14.91
2019-04-04T11:06:51.726Z,14.93
2019-04-04T11:09:25.120Z,15.27
2019-04-04T11:11:59.452Z,14.72
2019-04-04T11:14:32.328Z,15.49
2019-04-04T11:17:05.447Z,16.11
2019-04-04T11:19:39.640Z,15.72
2019-04-04T11:22:14.764Z,14.99
2019-04-04T11:24:49.598Z,15.65
2019-04-04T11:27:23.105Z,15.82
2019-04-04T11:29:56.689Z,15.49
2019-04-04T11:32:30.395Z,16.02
2019-04-04T11:35:03.999Z,16.46
2019-04-04T11:37:37.779Z,16.43
2019-04-04T11:40:13.996Z,16.59
2019-04-04T11:42:47.643Z,16.25
2019-04-04T11:45:21.274Z,16.17
2019-04-04T11:47:54.298Z,15.54
2019-04-04T11:50:28.576Z,15.96
2019-04-04T11:53:02.246Z,15.93
2019-04-04T11:55:37.222Z,15.81
2019-04-04T11:58:10.268Z,15.92
2019-04-04T12:00:46.404Z,16.35
2019-04-04T12:03:20.585Z,16.20
2019-04-04T12:05:54.538Z,16.63
2019-04-04T12:08:28.798Z,16.20
2019-04-04T12:11:06.104Z,15.69
2019-04-04T12:13:39.759Z,14.87
2019-04-04T12:16:13.807Z,15.61
2019-04-04T12:18:47.527Z,16.00
2019-04-04T12:21:22.527Z,15.32
2019-04-04T12:23:55.937Z,16.24
2019-04-04T12:26:29.317Z,16.15
2019-04-04T12:29:03.111Z,15.92
2019-04-04T12:31:36.843Z,16.14
2019-04-04T12:34:10.260Z,16.32
2019-04-04T12:36:45.165Z,15.90
2019-04-04T12:39:18.821Z,16.81
2019-04-04T12:41:52.367Z,15.96
2019-04-04T12:44:26.156Z,16.07
2019-04-04T12:47:00.231Z,15.49
2019-04-04T12:49:34.600Z,14.89
2019-04-04T12:52:08.697Z,14.79
2019-04-04T12:54:42.120Z,15.05
2019-04-04T12:57:14.958Z,15.37
2019-04-04T12:59:47.065Z,15.40
2019-04-04T13:02:25.358Z,14.32
2019-04-04T13:04:59.405Z,15.00
2019-04-04T13:07:33.219Z,15.27
2019-04-04T13:10:11.894Z,15.11
2019-04-04T13:12:45.061Z,15.11
2019-04-04T13:15:18.738Z,15.63
2019-04-04T13:17:52.110Z,15.60
2019-04-04T13:20:25.878Z,16.24
2019-04-04T13:22:59.327Z,16.26
2019-04-04T13:25:33.593Z,15.91
2019-04-04T13:28:08.817Z,15.74
2019-04-04T13:30:43.044Z,15.52
2019-04-04T13:33:16.036Z,14.99
2019-04-04T13:35:49.162Z,14.67
2019-04-04T13:38:22.967Z,15.33
2019-04-04T13:40:56.907Z,15.57
2019-04-04T13:43:30.450Z,15.46
2019-04-04T13:46:03.313Z,14.30
2019-04-04T13:48:38.094Z,14.31
2019-04-04T13:51:11.458Z,14.77
2019-04-04T13:53:44.778Z,15.12
2019-04-04T13:56:17.531Z,14.92
2019-04-04T13:58:51.545Z,14.45
2019-04-04T14:01:25.596Z,15.09
2019-04-04T14:04:01.027Z,14.49
2019-04-04T14:06:34.856Z,14.69
2019-04-04T14:09:12.467Z,14.55
2019-04-04T14:11:45.696Z,14.20
2019-04-04T14:14:19.398Z,13.58
2019-04-04T14:16:56.215Z,13.71
2019-04-04T14:19:31.555Z,13.61
2019-04-04T14:22:05.861Z,13.22
2019-04-04T14:24:40.141Z,13.04
2019-04-04T14:27:14.103Z,13.15
2019-04-04T14:29:47.439Z,12.95
2019-04-04T14:32:21.083Z,12.40
2019-04-04T14:34:53.422Z,12.50
2019-04-04T14:37:33.554Z,12.24
2019-04-04T14:40:09.148Z,12.66
2019-04-04T14:42:42.942Z,12.45
2019-04-04T14:45:16.384Z,12.25
2019-04-04T14:47:49.358Z,12.12
2019-04-04T14:50:22.842Z,12.37
2019-04-04T14:52:57.813Z,12.28
2019-04-04T14:55:31.470Z,11.76
2019-04-04T14:58:05.809Z,11.82
2019-04-04T15:00:39.960Z,11.85
2019-04-04T15:03:15.263Z,11.75
2019-04-04T15:05:48.729Z,11.61
2019-04-04T15:08:22.684Z,11.57
2019-04-04T15:10:56.554Z,11.63
2019-04-04T15:13:34.504Z,11.48
2019-04-04T15:16:29.066Z,11.11
2019-04-04T15:19:02.097Z,10.98
2019-04-04T15:21:35.191Z,11.09
2019-04-04T15:24:07.646Z,10.80
2019-04-04T15:26:43.488Z,10.68
2019-04-04T15:29:18.606Z,10.65
2019-04-04T15:31:54.525Z,10.45
2019-04-04T15:34:28.783Z,10.67
2019-04-04T15:37:01.691Z,10.16
2019-04-04T15:39:34.398Z,10.53
2019-04-04T15:42:07.768Z,10.62
2019-04-04T15:44:41.481Z,10.71
2019-04-04T15:47:15.998Z,10.58
2019-04-04T15:49:56.162Z,10.38
2019-04-04T15:52:33.749Z,10.36
2019-04-04T15:55:08.887Z,10.18
2019-04-04T15:57:44.796Z,10.51
2019-04-04T16:00:21.712Z,10.40
2019-04-04T16:02:58.509Z,10.40
2019-04-04T16:05:32.645Z,10.40
2019-04-04T16:08:06.275Z,10.32
2019-04-04T16:10:41.179Z,10.27
2019-04-04T16:13:15.850Z,10.15
2019-04-04T16:15:50.353Z,10.19
2019-04-04T16:18:23.671Z,9.93
2019-04-04T16:20:56.810Z,9.80
2019-04-04T16:23:30.113Z,9.89
2019-04-04T16:26:03.271Z,9.83
2019-04-04T16:28:39.200Z,9.82
2019-04-04T16:31:13.816Z,9.74
2019-04-04T16:33:48.995Z,9.52
2019-04-04T16:36:27.336Z,9.61
2019-04-04T16:39:01.161Z,9.41
2019-04-04T16:41:37.494Z,9.38
2019-04-04T16:44:16.606Z,9.49
2019-04-04T16:46:50.756Z,9.59
2019-04-04T16:49:24.057Z,9.39
2019-04-04T16:51:57.188Z,9.09
2019-04-04T16:54:30.589Z,8.94
2019-04-04T16:57:02.237Z,8.92
2019-04-04T16:59:36.353Z,8.92
2019-04-04T17:02:10.166Z,8.93
2019-04-04T17:04:43.999Z,8.74
2019-04-04T17:07:17.848Z,9.11
2019-04-04T17:09:51.928Z,8.83
2019-04-04T17:12:25.585Z,8.65
2019-04-04T17:14:59.308Z,8.68
2019-04-04T17:17:32.584Z,8.59
2019-04-04T17:20:05.797Z,8.50
2019-04-04T17:22:39.855Z,8.60
2019-04-04T17:25:16.090Z,8.46
2019-04-04T17:27:49.519Z,8.16
2019-04-04T17:30:24.221Z,8.05
2019-04-04T17:32:57.940Z,8.38
2019-04-04T17:35:31.595Z,8.14
2019-04-04T17:38:04.855Z,8.17
2019-04-04T17:40:39.035Z,7.86
2019-04-04T17:43:12.802Z,8.06
2019-04-04T17:45:47.765Z,8.03
2019-04-04T17:48:21.404Z,8.07
2019-04-04T17:50:55.517Z,7.98
2019-04-04T17:53:28.279Z,8.02
2019-04-04T17:56:01.881Z,7.87
2019-04-04T17:58:36.784Z,8.01
2019-04-04T18:01:11.726Z,8.01
2019-04-04T18:03:44.799Z,7.98
2019-04-04T18:06:18.481Z,7.90
2019-04-04T18:08:51.812Z,8.09
2019-04-04T18:11:25.190Z,7.81
2019-04-04T18:13:58.779Z,7.81
2019-04-04T18:16:32.928Z,7.80
2019-04-04T18:19:07.476Z,7.74
2019-04-04T18:21:41.186Z,7.68
2019-04-04T18:24:15.672Z,7.68
2019-04-04T18:26:50.559Z,7.61
2019-04-04T18:29:23.928Z,7.55
2019-04-04T18:31:56.676Z,7.66
2019-04-04T18:34:30.333Z,7.56
2019-04-04T18:37:05.802Z,7.45
2019-04-04T18:39:39.762Z,7.61
2019-04-04T18:42:14.195Z,7.47
2019-04-04T18:44:47.537Z,7.53
2019-04-04T18:47:20.397Z,7.41
2019-04-04T18:49:53.852Z,7.44
2019-04-04T18:52:26.796Z,7.39
2019-04-04T18:55:00.767Z,7.45
2019-04-04T18:57:34.363Z,7.44
2019-04-04T19:00:10.460Z,7.37
2019-04-04T19:02:44.884Z,7.33
2019-04-04T19:05:21.107Z,7.29
2019-04-04T19:07:54.903Z,7.28
2019-04-04T19:10:28.283Z,7.27
2019-04-04T19:13:05.708Z,7.32
2019-04-04T19:15:36.936Z,7.18
2019-04-04T19:18:11.688Z,7.06
2019-04-04T19:20:45.103Z,7.06
2019-04-04T19:23:17.178Z,7.20
2019-04-04T19:25:50.776Z,7.14
2019-04-04T19:28:25.760Z,7.23
2019-04-04T19:30:59.456Z,7.15
2019-04-04T19:33:32.623Z,7.17
2019-04-04T19:36:07.991Z,6.95
2019-04-04T19:38:41.696Z,6.95
2019-04-04T19:41:16.307Z,6.99
2019-04-04T19:43:50.050Z,6.96
2019-04-04T19:46:36.274Z,6.95
2019-04-04T19:48:59.628Z,6.87
2019-04-04T19:51:33.713Z,6.83
2019-04-04T19:54:07.774Z,6.95
2019-04-04T19:56:41.368Z,6.90
2019-04-04T19:59:15.367Z,6.76
2019-04-04T20:01:49.390Z,6.77
2019-04-04T20:04:23.357Z,6.72
2019-04-04T20:07:03.434Z,6.70
2019-04-04T20:09:35.699Z,6.70
2019-04-04T20:12:08.882Z,6.54
2019-04-04T20:14:42.044Z,6.73
2019-04-04T20:17:15.044Z,6.54
2019-04-04T20:19:49.527Z,6.65
2019-04-04T20:22:22.892Z,6.80
2019-04-04T20:24:57.478Z,6.71
2019-04-04T20:27:30.724Z,6.57
2019-04-04T20:30:04.874Z,6.60
2019-04-04T20:32:39.037Z,6.54
2019-04-04T20:35:13.882Z,6.40
2019-04-04T20:37:47.162Z,6.53
2019-04-04T20:40:20.238Z,6.62
2019-04-04T20:42:53.697Z,6.42
2019-04-04T20:45:27.434Z,6.46
2019-04-04T20:48:00.934Z,6.48
2019-04-04T20:50:32.093Z,6.59
2019-04-04T20:53:04.803Z,6.48
2019-04-04T20:55:38.003Z,6.53
2019-04-04T20:58:11.657Z,6.51
2019-04-04T21:00:45.501Z,6.43
2019-04-04T21:03:18.622Z,6.37
2019-04-04T21:05:52.017Z,6.50
2019-04-04T21:08:25.697Z,6.45
2019-04-04T21:10:59.769Z,6.42
2019-04-04T21:13:33.543Z,6.52
2019-04-04T21:16:07.068Z,6.54
2019-04-04T21:18:38.161Z,6.41
2019-04-04T21:21:12.263Z,6.34
2019-04-04T21:23:45.608Z,6.40
2019-04-04T21:26:19.071Z,6.38
2019-04-04T21:28:52.480Z,6.32
2019-04-04T21:31:26.143Z,6.24
2019-04-04T21:34:00.258Z,6.40
2019-04-04T21:36:33.912Z,6.35
2019-04-04T21:39:08.877Z,6.24
2019-04-04T21:41:42.814Z,6.26
2019-04-04T21:44:16.816Z,6.32
2019-04-04T21:46:50.640Z,6.33
2019-04-04T21:49:24.418Z,6.31
2019-04-04T21:51:57.787Z,6.42
2019-04-04T21:54:30.918Z,6.26
2019-04-04T21:57:04.324Z,6.25
2019-04-04T21:59:36.510Z,6.17
2019-04-04T22:02:09.651Z,6.21
2019-04-04T22:04:42.851Z,6.12
2019-04-04T22:07:16.380Z,6.26
2019-04-04T22:09:53.726Z,6.08
2019-04-04T22:12:28.302Z,6.14
2019-04-04T22:15:01.669Z,6.06
2019-04-04T22:17:35.135Z,6.21
2019-04-04T22:20:09.729Z,6.10
2019-04-04T22:22:43.994Z,6.11
2019-04-04T22:25:17.941Z,6.05
2019-04-04T22:27:50.980Z,6.03
2019-04-04T22:30:24.695Z,5.94
2019-04-04T22:33:01.703Z,5.95
2019-04-04T22:35:34.279Z,5.95
2019-04-04T22:38:05.948Z,5.86
2019-04-04T22:40:39.032Z,5.72
2019-04-04T22:43:13.755Z,5.86
2019-04-04T22:45:46.687Z,5.79
2019-04-04T22:48:20.072Z,5.91
2019-04-04T22:50:53.751Z,5.87
2019-04-04T22:53:27.193Z,5.87
2019-04-04T22:56:00.268Z,5.93
2019-04-04T22:58:33.358Z,5.85
2019-04-04T23:01:06.871Z,5.79
2019-04-04T23:03:40.778Z,5.77
2019-04-04T23:06:14.249Z,5.83
2019-04-04T23:08:46.684Z,5.88
2019-04-04T23:11:19.696Z,5.81
2019-04-04T23:13:52.840Z,5.93
2019-04-04T23:16:24.275Z,5.88
2019-04-04T23:18:56.972Z,5.88
2019-04-04T23:21:30.334Z,5.80
2019-04-04T23:24:04.449Z,5.75
2019-04-04T23:26:37.974Z,5.84
2019-04-04T23:29:09.010Z,5.74
2019-04-04T23:31:41.625Z,5.69
2019-04-04T23:34:15.161Z,5.75
2019-04-04T23:36:49.032Z,5.79
2019-04-04T23:39:22.326Z,5.76
2019-04-04T23:41:55.776Z,5.70
2019-04-04T23:44:29.165Z,5.65
2019-04-04T23:47:01.890Z,5.69
2019-04-04T23:49:35.400Z,5.64
2019-04-04T23:52:09.556Z,5.60
2019-04-04T23:54:43.205Z,5.72
2019-04-04T23:57:16.764Z,5.71
2019-04-04T23:59:48.160Z,5.65
